Time;durP1;ratioP1;P1;durP2;ratioP2;P2;SDS_P1;SDS_P2;PMS_P1;PMS_P2;Temp;Humidity;BMP_temperature;BMP_pressure;BME280_temperature;BME280_humidity;BME280_pressure;Samples;Min_cycle;Max_cycle;Signal;HPM_P1;HPM_P2
2024/01/05 00:00:57;;;;;;;;;;;;;;;7.58;55.59;97423.00;4354228;33;19947;-80
2024/01/05 00:03:24;;;;;;;;;;;;;;;7.37;55.87;97422.16;4354313;32;20037;-80
2024/01/05 00:05:50;;;;;;;;;;;;;;;7.45;56.15;97430.38;4352407;33;20037;-80
2024/01/05 00:08:17;;;;;;;;;;;;;;;7.11;57.17;97428.28;4354085;32;20005;-81
2024/01/05 00:10:44;;;;;;;;;;;;;;;6.99;57.15;97423.63;4354046;33;19966;-82
2024/01/05 00:13:11;;;;;;;;;;;;;;;7.03;57.58;97423.47;4353776;33;20457;-81
2024/01/05 00:15:37;;;;;;;;;;;;;;;6.65;57.96;97412.91;4353942;33;19997;-81
2024/01/05 00:18:06;;;;;;;;;;;;;;;6.98;56.66;97420.22;4354008;33;20228;-81
2024/01/05 00:20:33;;;;;;;;;;;;;;;7.53;55.14;97420.62;4353537;33;20026;-81
2024/01/05 00:22:59;;;;;;;;;;;;;;;7.52;54.36;97434.34;4351343;33;19983;-81
2024/01/05 00:25:26;;;;;;;;;;;;;;;7.73;54.30;97435.22;4350933;33;20343;-81
2024/01/05 00:27:53;;;;;;;;;;;;;;;6.76;57.83;97437.31;4350771;33;19991;-81
2024/01/05 00:30:20;;;;;;;;;;;;;;;6.91;57.69;97432.47;4351219;33;20417;-81
2024/01/05 00:32:47;;;;;;;;;;;;;;;6.38;58.91;97427.59;4351044;33;19994;-81
2024/01/05 00:35:14;;;;;;;;;;;;;;;6.01;59.89;97414.38;4351059;33;20332;-81
2024/01/05 00:37:41;;;;;;;;;;;;;;;6.47;58.93;97418.72;4351228;33;19986;-81
2024/01/05 00:40:07;;;;;;;;;;;;;;;5.56;62.95;97414.19;4350895;33;19983;-81
2024/01/05 00:42:34;;;;;;;;;;;;;;;6.50;59.78;97417.78;4351210;33;19994;-81
2024/01/05 00:45:01;;;;;;;;;;;;;;;6.77;57.71;97431.28;4351032;32;20064;-80
2024/01/05 00:47:28;;;;;;;;;;;;;;;6.99;56.81;97447.53;4350701;33;19986;-81
2024/01/05 00:49:54;;;;;;;;;;;;;;;6.61;57.58;97448.97;4350912;33;19975;-81
2024/01/05 00:52:21;;;;;;;;;;;;;;;6.40;58.92;97453.16;4351093;33;19987;-81
2024/01/05 00:54:48;;;;;;;;;;;;;;;6.27;59.89;97449.31;4350716;32;19978;-81
2024/01/05 00:57:15;;;;;;;;;;;;;;;6.77;58.93;97454.38;4351068;33;19989;-81
2024/01/05 00:59:41;;;;;;;;;;;;;;;6.72;58.74;97458.84;4351128;33;19985;-81
2024/01/05 01:02:08;;;;;;;;;;;;;;;6.96;57.60;97460.50;4350639;33;20091;-81
2024/01/05 01:04:34;;;;;;;;;;;;;;;6.87;58.16;97453.13;4351076;32;19987;-81
2024/01/05 01:07:01;;;;;;;;;;;;;;;6.13;61.20;97457.50;4350717;33;20045;-81
2024/01/05 01:09:28;;;;;;;;;;;;;;;6.61;59.67;97454.13;4350691;33;20259;-81
2024/01/05 01:11:55;;;;;;;;;;;;;;;6.49;60.04;97455.37;4350852;33;20030;-81
2024/01/05 01:14:22;;;;;;;;;;;;;;;6.23;61.16;97469.09;4350957;33;19995;-81
2024/01/05 01:16:51;;;;;;;;;;;;;;;6.40;60.63;97475.38;4350411;33;20326;-81
2024/01/05 01:19:17;;;;;;;;;;;;;;;5.86;62.23;97469.50;4350995;33;19966;-81
2024/01/05 01:21:44;;;;;;;;;;;;;;;6.09;61.44;97464.47;4350938;33;19979;-81
2024/01/05 01:24:11;;;;;;;;;;;;;;;6.51;60.11;97465.59;4350600;33;19987;-81
2024/01/05 01:26:38;;;;;;;;;;;;;;;6.07;60.46;97466.25;4350382;33;20002;-81
2024/01/05 01:29:06;;;;;;;;;;;;;;;5.81;61.72;97461.94;4350473;33;19983;-81
2024/01/05 01:31:33;;;;;;;;;;;;;;;5.70;61.45;97465.75;4350847;33;19987;-82
2024/01/05 01:34:00;;;;;;;;;;;;;;;5.07;63.99;97459.19;4349725;32;20022;-81
2024/01/05 01:36:27;;;;;;;;;;;;;;;5.43;62.83;97452.12;4350269;32;20010;-81
2024/01/05 01:38:53;;;;;;;;;;;;;;;5.63;62.82;97456.59;4350829;33;19985;-81
2024/01/05 01:41:20;;;;;;;;;;;;;;;4.77;65.83;97456.66;4350730;33;19975;-81
2024/01/05 01:43:48;;;;;;;;;;;;;;;3.91;69.29;97455.63;4350468;33;20380;-81
2024/01/05 01:46:18;;;;;;;;;;;;;;;4.04;70.24;97456.13;4350501;33;19971;-81
2024/01/05 01:48:46;;;;;;;;;;;;;;;4.68;68.02;97459.50;4350644;33;20329;-81
2024/01/05 01:51:13;;;;;;;;;;;;;;;4.22;69.43;97455.66;4349250;33;20366;-82
2024/01/05 01:53:39;;;;;;;;;;;;;;;4.05;70.45;97448.47;4350686;33;20310;-81
2024/01/05 01:56:10;;;;;;;;;;;;;;;4.21;69.77;97448.03;4350517;33;19997;-81
2024/01/05 01:58:37;;;;;;;;;;;;;;;4.19;70.57;97447.25;4349335;33;19970;-81
2024/01/05 02:01:05;;;;;;;;;;;;;;;3.92;72.00;97443.69;4350588;33;19990;-81
2024/01/05 02:03:32;;;;;;;;;;;;;;;3.47;74.77;97436.31;4350675;33;20041;-80
2024/01/05 02:05:59;;;;;;;;;;;;;;;3.72;74.19;97437.41;4350047;33;19998;-80
2024/01/05 02:08:26;;;;;;;;;;;;;;;4.09;73.23;97446.66;4350507;33;19970;-80
2024/01/05 02:10:53;;;;;;;;;;;;;;;4.36;71.02;97452.75;4350574;33;19993;-81
2024/01/05 02:13:20;;;;;;;;;;;;;;;4.36;70.70;97450.19;4350272;33;20232;-81
2024/01/05 02:15:47;;;;;;;;;;;;;;;4.09;71.52;97451.75;4350487;33;20381;-81
2024/01/05 02:18:14;;;;;;;;;;;;;;;4.47;70.64;97448.19;4350089;33;20318;-81
2024/01/05 02:20:46;;;;;;;;;;;;;;;4.59;69.96;97452.94;4349382;33;19975;-81
2024/01/05 02:23:23;;;;;;;;;;;;;;;4.89;68.55;97448.66;4350527;33;19979;-81
2024/01/05 02:25:50;;;;;;;;;;;;;;;4.72;69.36;97457.69;4349701;33;20034;-81
2024/01/05 02:28:17;;;;;;;;;;;;;;;4.97;67.99;97450.13;4350216;33;20017;-81
2024/01/05 02:30:44;;;;;;;;;;;;;;;4.33;70.72;97453.63;4349191;33;19991;-81
2024/01/05 02:33:11;;;;;;;;;;;;;;;3.97;72.45;97447.81;4350091;32;20319;-81
2024/01/05 02:35:37;;;;;;;;;;;;;;;4.13;72.11;97450.78;4350135;33;20319;-81
2024/01/05 02:38:05;;;;;;;;;;;;;;;4.70;69.61;97454.34;4350311;33;19970;-81
2024/01/05 02:40:31;;;;;;;;;;;;;;;5.07;67.41;97443.84;4349938;32;19985;-81
2024/01/05 02:42:58;;;;;;;;;;;;;;;5.04;67.49;97449.06;4350378;32;20596;-81
2024/01/05 02:45:25;;;;;;;;;;;;;;;4.74;68.32;97450.81;4349622;33;19978;-81
2024/01/05 02:47:51;;;;;;;;;;;;;;;4.84;67.70;97452.22;4349947;33;20019;-81
2024/01/05 02:50:19;;;;;;;;;;;;;;;4.73;68.26;97446.59;4349993;33;19979;-81
2024/01/05 02:52:45;;;;;;;;;;;;;;;5.02;66.81;97450.84;4349101;33;20004;-81
2024/01/05 02:55:12;;;;;;;;;;;;;;;4.96;66.77;97453.56;4336407;33;20010;-81
2024/01/05 02:57:41;;;;;;;;;;;;;;;4.48;67.69;97456.66;4350193;33;19971;-81
2024/01/05 03:00:08;;;;;;;;;;;;;;;4.55;67.91;97459.00;4349009;33;20034;-81
2024/01/05 03:02:34;;;;;;;;;;;;;;;4.45;67.82;97449.06;4350136;33;19983;-81
2024/01/05 03:05:01;;;;;;;;;;;;;;;4.56;68.16;97455.56;4350027;33;20062;-81
2024/01/05 03:07:28;;;;;;;;;;;;;;;4.98;66.80;97457.75;4349713;32;20038;-81
2024/01/05 03:09:54;;;;;;;;;;;;;;;4.62;68.08;97450.28;4349882;32;20037;-81
2024/01/05 03:12:21;;;;;;;;;;;;;;;4.69;68.00;97457.78;4350065;33;20013;-81
2024/01/05 03:14:48;;;;;;;;;;;;;;;4.64;68.72;97453.63;4349502;33;20049;-81
2024/01/05 03:17:15;;;;;;;;;;;;;;;4.29;69.98;97446.13;4349675;33;20021;-81
2024/01/05 03:19:42;;;;;;;;;;;;;;;4.52;69.94;97451.41;4349991;33;20026;-81
2024/01/05 03:22:08;;;;;;;;;;;;;;;4.09;71.29;97449.19;4349508;33;19998;-81
2024/01/05 03:24:35;;;;;;;;;;;;;;;4.63;69.67;97451.12;4349853;32;20318;-81
2024/01/05 03:27:04;;;;;;;;;;;;;;;4.83;68.45;97451.38;4349348;33;20303;-81
2024/01/05 03:29:31;;;;;;;;;;;;;;;4.63;69.43;97451.94;4349417;33;19994;-81
2024/01/05 03:31:58;;;;;;;;;;;;;;;4.56;70.08;97460.66;4349791;33;20033;-81
2024/01/05 03:34:24;;;;;;;;;;;;;;;4.40;70.84;97461.97;4349707;32;20314;-81
2024/01/05 03:36:51;;;;;;;;;;;;;;;3.96;73.38;97458.91;4349125;33;19981;-81
2024/01/05 03:39:18;;;;;;;;;;;;;;;4.54;71.42;97459.88;4349519;33;20139;-81
2024/01/05 03:41:45;;;;;;;;;;;;;;;4.88;70.24;97461.47;4349607;33;19983;-81
2024/01/05 03:44:11;;;;;;;;;;;;;;;4.63;70.14;97461.34;4349197;33;20046;-81
2024/01/05 03:46:38;;;;;;;;;;;;;;;4.69;69.77;97463.72;4349252;33;19968;-81
2024/01/05 03:49:05;;;;;;;;;;;;;;;4.90;68.36;97463.09;4349495;33;20013;-81
2024/01/05 03:51:32;;;;;;;;;;;;;;;4.91;67.78;97463.94;4347940;33;19997;-81
2024/01/05 03:53:59;;;;;;;;;;;;;;;4.73;68.04;97465.31;4349441;32;20054;-81
2024/01/05 03:56:25;;;;;;;;;;;;;;;4.33;70.03;97461.31;4348798;33;19981;-81
2024/01/05 03:58:52;;;;;;;;;;;;;;;4.32;69.72;97456.25;4351069;33;20030;-81
2024/01/05 04:01:19;;;;;;;;;;;;;;;4.16;70.53;97463.50;4351548;33;19983;-81
2024/01/05 04:03:46;;;;;;;;;;;;;;;4.35;70.12;97462.09;4351036;33;19970;-81
2024/01/05 04:06:19;;;;;;;;;;;;;;;4.57;69.16;97461.50;4351189;33;19959;-81
2024/01/05 04:08:46;;;;;;;;;;;;;;;4.68;68.43;97454.41;4351467;33;19997;-82
2024/01/05 04:11:20;;;;;;;;;;;;;;;4.23;70.73;97443.72;4351047;32;19983;-81
2024/01/05 04:13:47;;;;;;;;;;;;;;;4.64;70.14;97440.84;4351392;33;20009;-81
2024/01/05 04:16:14;;;;;;;;;;;;;;;4.51;71.16;97433.59;4351138;33;19971;-81
2024/01/05 04:18:41;;;;;;;;;;;;;;;4.56;72.38;97434.28;4350994;33;20042;-81
2024/01/05 04:21:09;;;;;;;;;;;;;;;4.28;73.61;97418.91;4351327;32;19979;-81
2024/01/05 04:23:36;;;;;;;;;;;;;;;3.57;78.82;97409.72;4351307;33;19997;-81
2024/01/05 04:26:02;;;;;;;;;;;;;;;4.55;73.98;97414.72;4350587;33;19970;-81
2024/01/05 04:28:29;;;;;;;;;;;;;;;4.29;73.38;97416.31;4351004;33;20322;-81
2024/01/05 04:30:56;;;;;;;;;;;;;;;4.44;71.95;97422.69;4351123;33;19983;-81
2024/01/05 04:33:23;;;;;;;;;;;;;;;4.58;71.55;97423.16;4350887;33;19979;-81
2024/01/05 04:35:50;;;;;;;;;;;;;;;4.35;72.80;97421.22;4351021;33;20013;-81
2024/01/05 04:38:17;;;;;;;;;;;;;;;4.12;74.95;97421.03;4349948;33;19997;-81
2024/01/05 04:40:44;;;;;;;;;;;;;;;4.59;73.77;97427.38;4350837;33;19983;-81
2024/01/05 04:43:10;;;;;;;;;;;;;;;4.69;72.76;97429.69;4351161;33;19979;-81
2024/01/05 04:45:37;;;;;;;;;;;;;;;4.72;71.83;97427.84;4350599;33;20345;-81
2024/01/05 04:48:04;;;;;;;;;;;;;;;4.61;70.94;97427.34;4350044;33;20069;-81
2024/01/05 04:50:31;;;;;;;;;;;;;;;4.11;73.47;97439.78;4351079;33;19983;-81
2024/01/05 04:52:57;;;;;;;;;;;;;;;3.66;74.14;97440.09;4350622;33;19975;-81
2024/01/05 04:55:25;;;;;;;;;;;;;;;3.75;73.65;97436.47;4350809;33;19985;-81
2024/01/05 04:57:51;;;;;;;;;;;;;;;3.60;74.83;97442.78;4349864;33;19986;-81
2024/01/05 05:00:18;;;;;;;;;;;;;;;3.76;74.16;97445.81;4350683;33;19974;-81
2024/01/05 05:02:45;;;;;;;;;;;;;;;3.24;77.36;97451.31;4351023;33;20031;-81
2024/01/05 05:05:12;;;;;;;;;;;;;;;3.70;75.82;97444.22;4350808;33;20029;-81
2024/01/05 05:07:38;;;;;;;;;;;;;;;3.60;77.12;97445.34;4350687;32;20042;-81
2024/01/05 05:10:05;;;;;;;;;;;;;;;3.36;79.28;97451.88;4350629;32;20038;-81
2024/01/05 05:12:32;;;;;;;;;;;;;;;4.38;74.80;97461.19;4349773;33;20514;-81
2024/01/05 05:14:59;;;;;;;;;;;;;;;4.10;75.68;97461.09;4350563;32;19967;-80
2024/01/05 05:17:26;;;;;;;;;;;;;;;4.26;75.71;97454.72;4350789;33;20054;-81
2024/01/05 05:19:54;;;;;;;;;;;;;;;4.81;72.65;97453.16;4350944;33;19983;-81
2024/01/05 05:22:21;;;;;;;;;;;;;;;4.53;73.50;97457.38;4350484;33;19993;-81
2024/01/05 05:24:50;;;;;;;;;;;;;;;4.35;75.25;97454.44;4350652;33;19982;-81
2024/01/05 05:27:17;;;;;;;;;;;;;;;4.59;73.25;97452.94;4350946;33;20002;-81
2024/01/05 05:29:44;;;;;;;;;;;;;;;4.47;74.21;97455.84;4350418;33;19997;-81
2024/01/05 05:32:11;;;;;;;;;;;;;;;4.34;75.92;97457.88;4350837;33;19975;-81
2024/01/05 05:34:38;;;;;;;;;;;;;;;4.16;76.11;97450.72;4350550;33;19967;-81
2024/01/05 05:37:05;;;;;;;;;;;;;;;4.91;72.85;97454.56;4350584;33;20315;-81
2024/01/05 05:39:32;;;;;;;;;;;;;;;5.07;71.26;97449.81;4350900;33;19983;-81
2024/01/05 05:41:59;;;;;;;;;;;;;;;4.53;73.25;97450.53;4350459;33;20025;-81
2024/01/05 05:44:25;;;;;;;;;;;;;;;4.80;72.08;97453.19;4350677;32;20025;-81
2024/01/05 05:46:52;;;;;;;;;;;;;;;4.65;72.65;97452.75;4350476;33;19979;-81
2024/01/05 05:49:20;;;;;;;;;;;;;;;4.59;72.66;97454.66;4350411;33;19997;-81
2024/01/05 05:51:47;;;;;;;;;;;;;;;4.55;72.37;97440.28;4350772;32;20041;-81
2024/01/05 05:54:14;;;;;;;;;;;;;;;4.67;72.12;97449.31;4350720;32;19962;-81
2024/01/05 05:56:41;;;;;;;;;;;;;;;4.32;72.65;97449.41;4350229;33;19979;-81
2024/01/05 05:59:08;;;;;;;;;;;;;;;4.88;70.79;97457.19;4350638;33;19979;-81
2024/01/05 06:01:35;;;;;;;;;;;;;;;4.67;70.54;97460.34;4350691;33;19971;-81
2024/01/05 06:04:03;;;;;;;;;;;;;;;4.83;69.68;97459.06;4350283;33;19967;-81
2024/01/05 06:06:30;;;;;;;;;;;;;;;4.53;69.96;97458.19;4350277;33;20449;-81
2024/01/05 06:08:57;;;;;;;;;;;;;;;4.03;71.20;97459.56;4350538;33;19986;-81
2024/01/05 06:11:26;;;;;;;;;;;;;;;4.01;71.49;97451.09;4350196;33;19989;-82
2024/01/05 06:13:53;;;;;;;;;;;;;;;4.05;71.07;97448.47;4350573;33;19966;-81
2024/01/05 06:16:20;;;;;;;;;;;;;;;3.94;71.31;97445.34;4350374;33;20030;-81
2024/01/05 06:18:47;;;;;;;;;;;;;;;4.24;70.70;97443.66;4350215;33;19987;-81
2024/01/05 06:21:14;;;;;;;;;;;;;;;4.11;71.48;97438.94;4349647;33;19971;-81
2024/01/05 06:23:41;;;;;;;;;;;;;;;4.61;70.37;97442.66;4350238;33;20013;-81
2024/01/05 06:26:08;;;;;;;;;;;;;;;4.47;70.67;97440.50;4350167;33;20098;-81
2024/01/05 06:28:34;;;;;;;;;;;;;;;4.41;70.76;97447.50;4345315;32;168591;-82
2024/01/05 06:31:01;;;;;;;;;;;;;;;4.62;69.58;97452.00;4349996;33;20763;-82
2024/01/05 06:33:28;;;;;;;;;;;;;;;4.23;70.91;97451.38;4350247;33;20042;-81
2024/01/05 06:35:55;;;;;;;;;;;;;;;4.14;71.07;97442.25;4350149;33;19989;-82
2024/01/05 06:38:21;;;;;;;;;;;;;;;3.89;71.85;97438.66;4349977;33;20001;-81
2024/01/05 06:40:48;;;;;;;;;;;;;;;4.02;71.87;97443.41;4350294;32;20050;-81
2024/01/05 06:43:15;;;;;;;;;;;;;;;4.41;70.34;97445.78;4350264;33;20010;-82
2024/01/05 06:45:42;;;;;;;;;;;;;;;4.28;70.54;97447.84;4349858;32;19975;-81
2024/01/05 06:48:08;;;;;;;;;;;;;;;4.21;70.67;97450.59;4350285;33;19978;-81
2024/01/05 06:50:35;;;;;;;;;;;;;;;3.85;72.28;97448.13;4350097;33;20439;-79
2024/01/05 06:53:03;;;;;;;;;;;;;;;3.91;72.83;97454.78;4349944;32;19986;-79
2024/01/05 06:55:30;;;;;;;;;;;;;;;4.51;71.13;97451.47;4350038;33;19994;-79
2024/01/05 06:57:56;;;;;;;;;;;;;;;4.60;70.72;97452.03;4350063;33;20038;-79
2024/01/05 07:00:23;;;;;;;;;;;;;;;4.12;72.46;97459.31;4349751;33;20037;-79
2024/01/05 07:02:50;;;;;;;;;;;;;;;3.64;74.01;97457.16;4350011;33;20030;-77
2024/01/05 07:05:17;;;;;;;;;;;;;;;3.90;73.74;97460.75;4349911;33;19991;-79
2024/01/05 07:07:43;;;;;;;;;;;;;;;3.68;74.75;97466.41;4349812;33;19983;-79
2024/01/05 07:10:10;;;;;;;;;;;;;;;3.68;76.22;97473.22;4349917;33;19983;-80
2024/01/05 07:12:38;;;;;;;;;;;;;;;3.41;78.03;97469.63;4348794;33;19963;-80
2024/01/05 07:15:05;;;;;;;;;;;;;;;3.93;77.22;97463.22;4349510;33;19990;-80
2024/01/05 07:17:32;;;;;;;;;;;;;;;4.33;77.18;97461.31;4349963;32;19987;-80
2024/01/05 07:19:59;;;;;;;;;;;;;;;4.57;79.87;97453.84;4349449;33;19971;-81
2024/01/05 07:22:25;;;;;;;;;;;;;;;5.14;76.46;97445.34;4349825;33;20310;-81
2024/01/05 07:24:52;;;;;;;;;;;;;;;4.98;75.86;97444.97;4349284;32;19979;-80
2024/01/05 07:27:19;;;;;;;;;;;;;;;5.53;76.67;97440.72;4349480;33;19986;-81
2024/01/05 07:29:45;;;;;;;;;;;;;;;6.04;72.44;97442.44;4349680;33;19985;-81
2024/01/05 07:32:12;;;;;;;;;;;;;;;6.80;68.67;97442.25;4350747;32;20274;-81
2024/01/05 07:34:39;;;;;;;;;;;;;;;6.93;66.47;97440.09;4351288;33;19979;-81
2024/01/05 07:37:06;;;;;;;;;;;;;;;7.04;65.96;97435.41;4351345;33;19974;-81
2024/01/05 07:39:32;;;;;;;;;;;;;;;7.64;63.40;97443.28;4351492;32;20033;-82
2024/01/05 07:42:02;;;;;;;;;;;;;;;7.61;64.48;97451.97;4351104;33;20425;-81
2024/01/05 07:44:28;;;;;;;;;;;;;;;8.22;63.60;97451.16;4351339;33;19989;-82
2024/01/05 07:46:55;;;;;;;;;;;;;;;8.70;59.67;97463.63;4351286;32;19993;-82
2024/01/05 07:49:23;;;;;;;;;;;;;;;9.40;57.73;97468.13;4351008;33;20038;-82
2024/01/05 07:51:50;;;;;;;;;;;;;;;9.90;54.72;97471.78;4351409;33;19971;-82
2024/01/05 07:54:17;;;;;;;;;;;;;;;9.90;54.56;97485.50;4350332;33;19987;-81
2024/01/05 07:56:44;;;;;;;;;;;;;;;10.45;53.35;97467.28;4350909;33;19971;-81
2024/01/05 07:59:11;;;;;;;;;;;;;;;10.84;52.04;97455.78;4350254;33;20274;-80
2024/01/05 08:01:37;;;;;;;;;;;;;;;10.98;49.91;97450.72;4351393;33;20037;-81
2024/01/05 08:04:04;;;;;;;;;;;;;;;10.67;51.97;97449.78;4350964;33;19971;-81
2024/01/05 08:06:31;;;;;;;;;;;;;;;11.10;50.36;97444.06;4351115;33;20096;-81
2024/01/05 08:08:58;;;;;;;;;;;;;;;11.64;48.98;97440.16;4351044;33;19988;-82
2024/01/05 08:11:25;;;;;;;;;;;;;;;12.68;47.80;97447.87;4351317;33;19963;-81
2024/01/05 08:13:51;;;;;;;;;;;;;;;13.34;46.58;97440.37;4351340;33;20014;-82
2024/01/05 08:16:18;;;;;;;;;;;;;;;13.84;45.18;97430.19;4350745;33;19986;-83
2024/01/05 08:18:45;;;;;;;;;;;;;;;14.38;44.30;97437.81;4351327;33;20006;-83
2024/01/05 08:21:12;;;;;;;;;;;;;;;14.77;44.05;97436.88;4351275;33;20054;-83
2024/01/05 08:23:39;;;;;;;;;;;;;;;15.47;42.75;97422.44;4350973;33;20322;-82
2024/01/05 08:26:05;;;;;;;;;;;;;;;15.76;41.10;97430.75;4350813;33;19979;-81
2024/01/05 08:28:32;;;;;;;;;;;;;;;16.15;40.37;97432.97;4351270;33;19982;-82
2024/01/05 08:30:59;;;;;;;;;;;;;;;16.39;39.11;97422.50;4350754;33;20424;-82
2024/01/05 08:33:26;;;;;;;;;;;;;;;13.81;45.73;97425.19;4351101;33;20026;-82
2024/01/05 08:35:53;;;;;;;;;;;;;;;13.65;46.21;97447.87;4350923;33;20050;-81
2024/01/05 08:38:20;;;;;;;;;;;;;;;13.81;45.00;97430.38;4350958;33;19975;-82
2024/01/05 08:40:49;;;;;;;;;;;;;;;14.10;47.61;97425.84;4351006;33;19995;-81
2024/01/05 08:43:16;;;;;;;;;;;;;;;14.06;49.45;97433.94;4350764;33;20327;-81
2024/01/05 08:45:42;;;;;;;;;;;;;;;14.31;49.68;97433.13;4350534;33;20014;-81
2024/01/05 08:48:11;;;;;;;;;;;;;;;13.73;50.86;97434.41;4351218;32;19989;-81
2024/01/05 08:50:38;;;;;;;;;;;;;;;13.42;50.97;97436.38;4350962;33;19963;-82
2024/01/05 08:53:05;;;;;;;;;;;;;;;13.37;51.57;97451.38;4350594;33;19975;-81
2024/01/05 08:55:31;;;;;;;;;;;;;;;13.18;52.83;97456.00;4350912;33;19997;-81
2024/01/05 08:57:58;;;;;;;;;;;;;;;13.31;53.57;97457.78;4351034;32;20444;-81
2024/01/05 09:00:26;;;;;;;;;;;;;;;13.36;53.97;97454.91;4350985;33;19971;-81
2024/01/05 09:02:53;;;;;;;;;;;;;;;12.86;54.77;97455.41;4350916;33;19987;-83
2024/01/05 09:05:20;;;;;;;;;;;;;;;13.24;54.16;97453.91;4350471;33;20448;-83
2024/01/05 09:07:50;;;;;;;;;;;;;;;13.53;53.31;97441.72;4349816;33;20021;-82
2024/01/05 09:10:17;;;;;;;;;;;;;;;13.76;52.37;97441.97;4350850;33;20356;-82
2024/01/05 09:12:43;;;;;;;;;;;;;;;13.80;52.86;97446.03;4350572;32;19987;-81
2024/01/05 09:15:10;;;;;;;;;;;;;;;13.53;53.45;97430.50;4350820;33;19991;-82
2024/01/05 09:17:37;;;;;;;;;;;;;;;13.31;54.41;97426.69;4350963;33;19975;-82
2024/01/05 09:20:04;;;;;;;;;;;;;;;13.34;53.93;97436.03;4350511;33;20033;-82
2024/01/05 09:22:31;;;;;;;;;;;;;;;13.40;54.00;97421.84;4350800;33;20252;-82
2024/01/05 09:24:58;;;;;;;;;;;;;;;13.10;54.05;97429.78;4350538;32;19996;-82
2024/01/05 09:27:24;;;;;;;;;;;;;;;13.17;53.83;97429.28;4350559;33;20066;-82
2024/01/05 09:29:51;;;;;;;;;;;;;;;13.27;53.96;97417.44;4350635;33;19970;-82
2024/01/05 09:32:18;;;;;;;;;;;;;;;13.59;53.01;97415.38;4350791;33;19974;-82
2024/01/05 09:34:45;;;;;;;;;;;;;;;13.24;53.80;97414.22;4350463;33;20425;-82
2024/01/05 09:37:11;;;;;;;;;;;;;;;12.70;54.75;97411.53;4350512;33;19989;-83
2024/01/05 09:39:39;;;;;;;;;;;;;;;12.33;56.47;97405.16;4350804;33;19966;-83
2024/01/05 09:42:06;;;;;;;;;;;;;;;12.91;54.52;97405.03;4350464;33;20027;-82
2024/01/05 09:44:33;;;;;;;;;;;;;;;12.27;55.94;97393.44;4349580;33;19998;-82
2024/01/05 09:46:59;;;;;;;;;;;;;;;12.45;55.75;97392.34;4349176;33;20370;-81
2024/01/05 09:49:26;;;;;;;;;;;;;;;13.53;53.47;97389.88;4350431;33;19972;-80
2024/01/05 09:51:53;;;;;;;;;;;;;;;13.42;53.22;97381.97;4350563;33;19986;-81
2024/01/05 09:54:20;;;;;;;;;;;;;;;12.94;53.72;97383.28;4348739;33;19990;-79
2024/01/05 09:56:47;;;;;;;;;;;;;;;13.33;53.77;97392.91;4349824;33;19985;-82
2024/01/05 09:59:17;;;;;;;;;;;;;;;13.99;51.89;97399.81;4349625;33;19971;-82
2024/01/05 10:01:45;;;;;;;;;;;;;;;13.51;52.54;97391.75;4350416;33;20333;-82
2024/01/05 10:04:12;;;;;;;;;;;;;;;13.49;52.58;97397.94;4350590;33;20046;-81
2024/01/05 10:06:39;;;;;;;;;;;;;;;12.96;53.79;97394.37;4350316;33;19993;-82
2024/01/05 10:09:06;;;;;;;;;;;;;;;12.93;54.20;97394.56;4350300;33;19974;-82
2024/01/05 10:11:34;;;;;;;;;;;;;;;12.33;55.26;97398.22;4350381;33;20231;-81
2024/01/05 10:14:04;;;;;;;;;;;;;;;11.71;57.31;97394.16;4350543;33;19983;-82
2024/01/05 10:16:36;;;;;;;;;;;;;;;11.76;58.11;97390.38;4348706;33;19979;-82
2024/01/05 10:19:13;;;;;;;;;;;;;;;11.35;59.86;97397.06;4350567;33;19985;-82
2024/01/05 10:21:41;;;;;;;;;;;;;;;11.66;59.46;97394.41;4350578;33;19982;-82
2024/01/05 10:24:15;;;;;;;;;;;;;;;11.20;60.20;97385.84;4350217;33;19979;-81
2024/01/05 10:26:42;;;;;;;;;;;;;;;11.80;58.62;97386.72;4350117;33;20023;-81
2024/01/05 10:29:13;;;;;;;;;;;;;;;11.79;57.61;97387.63;4350543;33;20006;-81
2024/01/05 10:31:40;;;;;;;;;;;;;;;11.57;58.31;97385.41;4349164;33;19983;-82
2024/01/05 10:34:07;;;;;;;;;;;;;;;10.96;59.95;97388.03;4350488;33;20026;-82
2024/01/05 10:36:34;;;;;;;;;;;;;;;10.39;62.04;97385.06;4349826;33;20041;-82
2024/01/05 10:39:03;;;;;;;;;;;;;;;10.26;62.42;97392.59;4350333;33;19971;-82
2024/01/05 10:41:29;;;;;;;;;;;;;;;9.98;64.12;97395.72;4350362;33;20038;-82
2024/01/05 10:43:56;;;;;;;;;;;;;;;10.73;62.01;97384.94;4350054;33;19997;-82
2024/01/05 10:46:23;;;;;;;;;;;;;;;10.74;62.35;97388.38;4349068;33;19971;-83
2024/01/05 10:48:50;;;;;;;;;;;;;;;10.55;63.16;97390.25;4350389;33;19975;-83
2024/01/05 10:51:20;;;;;;;;;;;;;;;10.14;64.47;97399.19;4348684;33;20034;-83
2024/01/05 10:53:47;;;;;;;;;;;;;;;9.72;65.84;97383.31;4350464;33;19983;-83
2024/01/05 10:56:14;;;;;;;;;;;;;;;9.48;66.60;97382.81;4349924;33;20018;-83
2024/01/05 10:58:42;;;;;;;;;;;;;;;9.35;66.95;97371.41;4349841;32;19975;-83
2024/01/05 11:01:09;;;;;;;;;;;;;;;9.80;65.59;97358.03;4350033;33;19994;-80
2024/01/05 11:03:38;;;;;;;;;;;;;;;9.53;66.14;97362.78;4349014;33;20005;-82
2024/01/05 11:06:08;;;;;;;;;;;;;;;9.69;66.55;97366.28;4349174;33;19989;-83
2024/01/05 11:08:41;;;;;;;;;;;;;;;9.73;66.28;97360.06;4348799;33;19981;-82
2024/01/05 11:11:27;;;;;;;;;;;;;;;9.88;65.18;97357.59;4349894;33;19975;-83
2024/01/05 11:13:59;;;;;;;;;;;;;;;9.74;65.50;97358.31;4350318;33;19979;-82
2024/01/05 11:16:35;;;;;;;;;;;;;;;9.85;65.56;97356.03;4349777;33;20414;-81
2024/01/05 11:19:22;;;;;;;;;;;;;;;9.96;65.22;97352.91;4348552;33;20275;-82
2024/01/05 11:21:56;;;;;;;;;;;;;;;10.26;63.92;97335.06;4349687;33;20034;-81
2024/01/05 11:24:23;;;;;;;;;;;;;;;10.39;63.83;97336.06;4348758;33;20364;-81
2024/01/05 11:26:50;;;;;;;;;;;;;;;10.85;61.56;97338.75;4348919;33;19993;-82
2024/01/05 11:29:36;;;;;;;;;;;;;;;11.08;61.42;97340.06;4349839;33;19985;-81
2024/01/05 11:32:02;;;;;;;;;;;;;;;11.47;60.24;97332.59;4349608;33;19983;-82
2024/01/05 11:34:32;;;;;;;;;;;;;;;11.44;60.26;97331.97;4349558;33;19999;-82
2024/01/05 11:37:00;;;;;;;;;;;;;;;11.67;60.00;97333.22;4349482;33;20246;-82
2024/01/05 11:39:47;;;;;;;;;;;;;;;11.91;59.00;97328.38;4348323;33;19966;-82
2024/01/05 11:42:23;;;;;;;;;;;;;;;12.00;58.79;97322.66;4349740;32;20307;-82
2024/01/05 11:44:50;;;;;;;;;;;;;;;12.30;58.13;97318.22;4349579;32;19986;-82
2024/01/05 11:47:36;;;;;;;;;;;;;;;12.41;57.54;97305.47;4348950;33;19995;-82
2024/01/05 11:50:32;;;;;;;;;;;;;;;12.40;56.81;97297.78;4349530;33;19971;-82
2024/01/05 11:53:07;;;;;;;;;;;;;;;12.57;56.43;97291.59;4342727;33;20297;-82
2024/01/05 11:55:39;;;;;;;;;;;;;;;12.60;56.01;97287.03;4348908;33;19975;-84
2024/01/05 11:58:12;;;;;;;;;;;;;;;12.51;56.23;97279.03;4349434;33;19990;-81
2024/01/05 12:00:44;;;;;;;;;;;;;;;12.57;56.65;97289.00;4348029;33;19983;-82
2024/01/05 12:03:12;;;;;;;;;;;;;;;12.22;57.59;97284.22;4349627;33;19994;-82
2024/01/05 12:05:38;;;;;;;;;;;;;;;12.36;57.14;97281.66;4349072;33;20050;-82
2024/01/05 12:08:05;;;;;;;;;;;;;;;12.71;55.79;97282.00;4348938;33;20262;-82
2024/01/05 12:10:33;;;;;;;;;;;;;;;12.64;55.97;97285.91;4347931;33;19968;-82
2024/01/05 12:13:00;;;;;;;;;;;;;;;12.85;55.28;97290.66;4349311;33;20012;-82
2024/01/05 12:15:27;;;;;;;;;;;;;;;13.07;55.16;97292.69;4348659;33;19987;-81
2024/01/05 12:18:01;;;;;;;;;;;;;;;13.29;53.70;97285.22;4347905;33;20326;-81
2024/01/05 12:20:27;;;;;;;;;;;;;;;12.94;55.25;97283.12;4351145;33;19971;-82
2024/01/05 12:22:54;;;;;;;;;;;;;;;12.56;57.29;97277.00;4350998;32;20032;-82
2024/01/05 12:25:21;;;;;;;;;;;;;;;12.48;58.15;97268.88;4350962;33;19994;-81
2024/01/05 12:27:47;;;;;;;;;;;;;;;12.19;60.15;97274.09;4351154;33;19990;-82
2024/01/05 12:30:14;;;;;;;;;;;;;;;11.92;61.06;97266.28;4350969;33;20039;-81
2024/01/05 12:32:41;;;;;;;;;;;;;;;11.97;61.68;97260.81;4350017;33;19979;-81
2024/01/05 12:35:08;;;;;;;;;;;;;;;11.73;62.35;97260.50;4349929;33;19995;-81
2024/01/05 12:37:35;;;;;;;;;;;;;;;11.34;63.99;97256.75;4350912;33;19983;-81
2024/01/05 12:40:10;;;;;;;;;;;;;;;11.42;63.88;97254.56;4351139;33;19971;-81
2024/01/05 12:42:37;;;;;;;;;;;;;;;11.44;63.66;97255.31;4350712;33;19979;-81
2024/01/05 12:45:05;;;;;;;;;;;;;;;11.20;64.73;97249.00;4349734;33;20348;-80
2024/01/05 12:47:35;;;;;;;;;;;;;;;10.86;64.71;97250.09;4351162;33;19983;-81
2024/01/05 12:50:03;;;;;;;;;;;;;;;10.95;65.92;97240.09;4350697;33;19975;-81
2024/01/05 12:52:36;;;;;;;;;;;;;;;10.91;66.32;97232.59;4351114;33;20429;-81
2024/01/05 12:55:06;;;;;;;;;;;;;;;11.13;65.11;97229.59;4350948;33;20001;-80